Terminal Aerodrome Forecast
Issued by NWS

Home | Current Version | Previous Version | Text Only | Print | Product List | Glossary On
Versions: 1 2 3 4 5 6 7 8 9 10 11 12 13 14 15 16
044
FTUS41 KPBZ 042322
TAFFKL
TAF
KFKL 042322Z 0500/0524 12007KT P6SM SCT025
     FM050300 13009KT 5SM -RASN OVC025
     FM050500 14009KT 5SM -RASN OVC008
     FM050800 21007KT P6SM VCSH OVC006
     FM051200 26008KT P6SM BKN008
     FM051700 23007KT P6SM BKN012
      AMD NOT SKED=

USA.gov is the U.S. government's official web portal to all federal, state and local government web resources and services.